createdAt,value
2023-05-20T00:00:19.421Z,58.13
2023-05-20T00:02:46.139Z,58.40
2023-05-20T00:05:12.689Z,58.76
2023-05-20T00:07:39.349Z,58.22
2023-05-20T00:10:06.653Z,58.49
2023-05-20T00:12:35.017Z,58.54
2023-05-20T00:15:02.166Z,59.10
2023-05-20T00:17:28.830Z,58.78
2023-05-20T00:19:55.566Z,59.13
2023-05-20T00:22:22.368Z,59.15
2023-05-20T00:24:49.068Z,59.18
2023-05-20T00:27:15.684Z,59.02
2023-05-20T00:29:42.220Z,59.24
2023-05-20T00:32:08.802Z,60.56
2023-05-20T00:34:35.744Z,59.82
2023-05-20T00:37:02.262Z,60.61
2023-05-20T00:39:30.371Z,60.01
2023-05-20T00:42:00.545Z,60.40
2023-05-20T00:44:27.122Z,60.29
2023-05-20T00:46:54.221Z,60.02
2023-05-20T00:49:22.136Z,60.07
2023-05-20T00:51:48.701Z,59.94
2023-05-20T00:54:15.431Z,60.58
2023-05-20T00:56:42.092Z,60.02
2023-05-20T00:59:09.233Z,60.79
2023-05-20T01:01:35.880Z,60.60
2023-05-20T01:04:02.931Z,59.99
2023-05-20T01:06:29.537Z,61.31
2023-05-20T01:08:56.438Z,60.47
2023-05-20T01:11:35.645Z,61.57
2023-05-20T01:14:06.590Z,61.11
2023-05-20T01:16:35.542Z,61.06
2023-05-20T01:19:04.122Z,61.74
2023-05-20T01:21:32.480Z,61.45
2023-05-20T01:23:59.071Z,60.88
2023-05-20T01:26:27.224Z,61.34
2023-05-20T01:28:54.262Z,60.93
2023-05-20T01:31:31.578Z,62.54
2023-05-20T01:33:59.465Z,61.95
2023-05-20T01:36:28.268Z,61.72
2023-05-20T01:38:55.522Z,61.22
2023-05-20T01:41:24.629Z,61.71
2023-05-20T01:43:51.174Z,62.15
2023-05-20T01:46:17.860Z,62.42
2023-05-20T01:48:44.497Z,62.17
2023-05-20T01:51:11.095Z,61.62
2023-05-20T01:53:37.844Z,62.13
2023-05-20T01:56:05.734Z,63.53
2023-05-20T01:58:32.344Z,63.09
2023-05-20T02:00:58.910Z,63.10
2023-05-20T02:03:25.734Z,65.57
2023-05-20T02:05:52.509Z,63.67
2023-05-20T02:08:19.052Z,64.55
2023-05-20T02:10:48.395Z,65.22
2023-05-20T02:13:14.931Z,63.54
2023-05-20T02:15:42.327Z,64.41
2023-05-20T02:18:08.978Z,64.65
2023-05-20T02:20:36.608Z,63.62
2023-05-20T02:23:05.765Z,64.70
2023-05-20T02:25:32.996Z,65.56
2023-05-20T02:27:59.821Z,64.33
2023-05-20T02:30:27.343Z,67.68
2023-05-20T02:32:53.885Z,65.15
2023-05-20T02:35:20.433Z,66.13
2023-05-20T02:37:48.322Z,64.01
2023-05-20T02:40:14.979Z,65.93
2023-05-20T02:42:41.521Z,66.23
2023-05-20T02:45:08.510Z,66.47
2023-05-20T02:47:35.058Z,64.46
2023-05-20T02:50:01.645Z,65.62
2023-05-20T02:52:28.486Z,66.11
2023-05-20T02:54:55.365Z,67.31
2023-05-20T02:57:22.062Z,65.63
2023-05-20T02:59:48.642Z,68.45
2023-05-20T03:02:15.572Z,65.86
2023-05-20T03:04:42.742Z,66.77
2023-05-20T03:07:09.350Z,67.13
2023-05-20T03:09:36.714Z,68.47
2023-05-20T03:12:03.783Z,66.40
2023-05-20T03:14:30.432Z,68.07
2023-05-20T03:16:57.234Z,68.21
2023-05-20T03:19:23.926Z,67.54
2023-05-20T03:21:50.745Z,66.47
2023-05-20T03:24:18.149Z,67.14
2023-05-20T03:26:46.497Z,66.05
2023-05-20T03:29:13.204Z,67.66
2023-05-20T03:31:39.780Z,67.64
2023-05-20T03:34:06.392Z,71.03
2023-05-20T03:36:32.891Z,67.33
2023-05-20T03:38:59.399Z,68.10
2023-05-20T03:41:26.201Z,67.56
2023-05-20T03:43:52.725Z,68.84
2023-05-20T03:46:19.404Z,68.62
2023-05-20T03:48:46.096Z,68.16
2023-05-20T03:51:12.634Z,74.18
2023-05-20T03:53:39.224Z,68.28
2023-05-20T03:56:06.069Z,68.88
2023-05-20T03:58:32.692Z,67.78
2023-05-20T04:00:59.235Z,70.66
2023-05-20T04:03:26.107Z,68.85
2023-05-20T04:05:52.731Z,68.46
2023-05-20T04:08:19.238Z,68.80
2023-05-20T04:10:46.225Z,67.90
2023-05-20T04:13:13.042Z,72.22
2023-05-20T04:15:39.653Z,70.41
2023-05-20T04:18:06.444Z,69.90
2023-05-20T04:20:33.206Z,69.77
2023-05-20T04:22:59.924Z,70.23
2023-05-20T04:25:27.353Z,72.84
2023-05-20T04:27:57.749Z,70.33
2023-05-20T04:30:24.578Z,71.25
2023-05-20T04:32:51.358Z,69.96
2023-05-20T04:35:18.394Z,76.85
2023-05-20T04:37:48.378Z,76.45
2023-05-20T04:40:15.323Z,71.59
2023-05-20T04:42:43.784Z,76.93
2023-05-20T04:45:10.921Z,72.96
2023-05-20T04:47:39.303Z,72.66
2023-05-20T04:50:10.776Z,71.54
2023-05-20T04:52:39.059Z,71.91
2023-05-20T04:55:10.268Z,74.28
2023-05-20T04:57:39.658Z,73.58
2023-05-20T05:00:07.884Z,72.79
2023-05-20T05:02:36.046Z,74.32
2023-05-20T05:05:02.892Z,73.50
2023-05-20T05:07:29.509Z,71.69
2023-05-20T05:09:56.379Z,74.14
2023-05-20T05:12:23.089Z,72.06
2023-05-20T05:14:49.896Z,71.32
2023-05-20T05:17:16.543Z,71.52
2023-05-20T05:19:43.063Z,72.93
2023-05-20T05:22:09.574Z,73.60
2023-05-20T05:24:36.139Z,72.26
2023-05-20T05:27:02.667Z,75.43
2023-05-20T05:29:29.384Z,72.88
2023-05-20T05:31:56.390Z,72.20
2023-05-20T05:34:22.986Z,73.22
2023-05-20T05:36:49.501Z,71.64
2023-05-20T05:39:16.245Z,74.17
2023-05-20T05:41:43.055Z,71.29
2023-05-20T05:44:09.692Z,74.64
2023-05-20T05:46:36.308Z,73.27
2023-05-20T05:49:02.848Z,72.53
2023-05-20T05:51:30.827Z,75.39
2023-05-20T05:53:57.401Z,71.29
2023-05-20T05:56:24.244Z,72.24
2023-05-20T05:58:51.035Z,71.95
2023-05-20T06:01:17.848Z,71.18
2023-05-20T06:03:45.101Z,72.78
2023-05-20T06:06:11.760Z,70.85
2023-05-20T06:08:38.430Z,70.71
2023-05-20T06:11:05.032Z,70.88
2023-05-20T06:13:31.552Z,72.63
2023-05-20T06:15:58.055Z,72.36
2023-05-20T06:18:24.618Z,70.64
2023-05-20T06:20:58.460Z,72.63
2023-05-20T06:23:25.138Z,72.47
2023-05-20T06:25:52.270Z,74.67
2023-05-20T06:28:18.826Z,72.11
2023-05-20T06:30:45.490Z,71.22
2023-05-20T06:33:12.107Z,71.83
2023-05-20T06:35:38.745Z,73.08
2023-05-20T06:38:05.996Z,71.00
2023-05-20T06:40:32.623Z,71.92
2023-05-20T06:42:59.291Z,71.91
2023-05-20T06:45:25.998Z,71.96
2023-05-20T06:47:54.236Z,71.28
2023-05-20T06:50:21.022Z,72.21
2023-05-20T06:52:47.643Z,71.85
2023-05-20T06:55:14.269Z,71.01
2023-05-20T06:57:41.088Z,70.88
2023-05-20T07:00:09.428Z,72.17
2023-05-20T07:02:36.135Z,73.05
2023-05-20T07:05:02.777Z,71.29
2023-05-20T07:07:29.488Z,71.46
2023-05-20T07:09:57.548Z,70.59
2023-05-20T07:12:24.431Z,70.52
2023-05-20T07:14:51.157Z,70.36
2023-05-20T07:17:17.883Z,71.35
2023-05-20T07:19:44.468Z,71.36
2023-05-20T07:22:11.443Z,71.37
2023-05-20T07:24:38.268Z,69.69
2023-05-20T07:27:05.192Z,70.49
2023-05-20T07:29:31.721Z,69.48
2023-05-20T07:31:58.298Z,69.85
2023-05-20T07:34:25.056Z,69.73
2023-05-20T07:36:51.726Z,70.71
2023-05-20T07:39:18.345Z,69.68
2023-05-20T07:41:45.105Z,69.76
2023-05-20T07:44:12.996Z,69.04
2023-05-20T07:46:40.470Z,69.55
2023-05-20T07:49:07.937Z,68.71
2023-05-20T07:51:34.443Z,68.86
2023-05-20T07:54:01.868Z,69.03
2023-05-20T07:56:28.852Z,69.22
2023-05-20T07:58:59.940Z,68.73
2023-05-20T08:01:27.291Z,69.30
2023-05-20T08:03:54.501Z,67.59
2023-05-20T08:06:21.860Z,67.53
2023-05-20T08:08:48.417Z,67.38
2023-05-20T08:11:15.230Z,67.23
2023-05-20T08:13:44.653Z,65.87
2023-05-20T08:16:11.638Z,66.17
2023-05-20T08:18:38.426Z,66.45
2023-05-20T08:21:09.914Z,66.16
2023-05-20T08:23:40.490Z,64.56
2023-05-20T08:26:08.004Z,65.21
2023-05-20T08:28:34.867Z,63.53
2023-05-20T08:31:02.474Z,62.19
2023-05-20T08:33:29.104Z,63.98
2023-05-20T08:35:56.045Z,62.67
2023-05-20T08:38:23.105Z,63.31
2023-05-20T08:40:54.916Z,62.70
2023-05-20T08:43:22.265Z,62.38
2023-05-20T08:45:49.415Z,62.79
2023-05-20T08:48:20.213Z,61.70
2023-05-20T08:50:51.506Z,61.18
2023-05-20T08:53:22.650Z,60.60
2023-05-20T08:55:55.529Z,57.78
2023-05-20T08:58:23.487Z,59.07
2023-05-20T09:00:51.486Z,57.50
2023-05-20T09:03:18.897Z,58.73
2023-05-20T09:05:45.572Z,60.22
2023-05-20T09:08:12.919Z,59.55
2023-05-20T09:10:43.145Z,58.90
2023-05-20T09:13:11.451Z,58.42
2023-05-20T09:15:39.178Z,56.55
2023-05-20T09:18:07.589Z,56.45
2023-05-20T09:20:37.433Z,57.18
2023-05-20T09:23:06.509Z,56.03
2023-05-20T09:25:33.851Z,55.62
2023-05-20T09:28:00.602Z,55.51
2023-05-20T09:30:27.204Z,55.02
2023-05-20T09:32:59.288Z,52.89
2023-05-20T09:35:27.921Z,53.42
2023-05-20T09:37:58.791Z,50.98
2023-05-20T09:40:31.736Z,48.28
2023-05-20T09:43:07.905Z,47.58
2023-05-20T09:45:35.561Z,52.97
2023-05-20T09:48:03.283Z,53.33
2023-05-20T09:50:32.081Z,52.48
2023-05-20T09:53:03.339Z,50.35
2023-05-20T09:55:30.931Z,45.88
2023-05-20T09:57:59.303Z,49.38
2023-05-20T10:00:26.030Z,50.88
2023-05-20T10:02:53.373Z,48.60
2023-05-20T10:05:29.591Z,48.31
2023-05-20T10:08:14.545Z,48.23
2023-05-20T10:10:56.459Z,46.35
2023-05-20T10:13:41.657Z,43.51
2023-05-20T10:17:10.417Z,43.03
2023-05-20T10:19:37.259Z,43.06
2023-05-20T10:22:08.883Z,41.11
2023-05-20T10:24:38.709Z,44.61
2023-05-20T10:27:15.191Z,43.66
2023-05-20T10:29:52.758Z,43.78
2023-05-20T10:32:25.513Z,43.78
2023-05-20T10:34:52.342Z,44.43
2023-05-20T10:37:28.043Z,38.97
2023-05-20T10:40:12.350Z,42.14
2023-05-20T10:42:39.794Z,44.04
2023-05-20T10:45:10.203Z,41.25
2023-05-20T10:47:40.540Z,43.28
2023-05-20T10:50:07.863Z,43.00
2023-05-20T10:52:37.124Z,41.84
2023-05-20T10:55:05.011Z,41.61
2023-05-20T10:57:34.598Z,42.13
2023-05-20T11:00:01.319Z,42.39
2023-05-20T11:02:28.991Z,42.00
2023-05-20T11:04:59.272Z,41.17
2023-05-20T11:07:32.961Z,40.89
2023-05-20T11:10:00.118Z,41.87
2023-05-20T11:12:30.409Z,41.00
2023-05-20T11:14:57.034Z,40.90
2023-05-20T11:17:23.603Z,40.10
2023-05-20T11:19:50.639Z,39.21
2023-05-20T11:22:17.367Z,40.99
2023-05-20T11:24:43.968Z,41.34
2023-05-20T11:27:10.679Z,40.78
2023-05-20T11:29:41.536Z,40.58
2023-05-20T11:32:08.588Z,40.95
2023-05-20T11:34:36.559Z,40.29
2023-05-20T11:37:07.992Z,40.55
2023-05-20T11:39:34.631Z,40.13
2023-05-20T11:42:01.332Z,39.69
2023-05-20T11:44:27.987Z,40.05
2023-05-20T11:47:03.301Z,38.11
2023-05-20T11:49:32.044Z,38.64
2023-05-20T11:51:58.906Z,37.59
2023-05-20T11:54:26.558Z,38.84
2023-05-20T11:56:56.851Z,38.00
2023-05-20T11:59:29.438Z,37.45
2023-05-20T12:01:56.168Z,37.04
2023-05-20T12:04:23.170Z,37.60
2023-05-20T12:06:50.178Z,36.98
2023-05-20T12:09:17.012Z,36.94
2023-05-20T12:11:45.161Z,36.53
2023-05-20T12:14:11.715Z,37.52
2023-05-20T12:16:38.311Z,36.54
2023-05-20T12:19:05.946Z,35.77
2023-05-20T12:21:32.615Z,36.01
2023-05-20T12:23:59.826Z,35.90
2023-05-20T12:26:29.679Z,36.17
2023-05-20T12:28:56.858Z,35.97
2023-05-20T12:31:25.560Z,36.62
2023-05-20T12:33:52.481Z,35.77
2023-05-20T12:36:22.280Z,36.27
2023-05-20T12:38:49.044Z,36.41
2023-05-20T12:41:15.737Z,36.15
2023-05-20T12:43:45.383Z,35.51
2023-05-20T12:46:12.322Z,36.39
2023-05-20T12:48:41.694Z,36.13
2023-05-20T12:51:09.200Z,34.52
2023-05-20T12:53:36.192Z,36.13
2023-05-20T12:56:06.178Z,35.11
2023-05-20T12:58:33.299Z,35.89
2023-05-20T13:01:00.341Z,36.93
2023-05-20T13:03:27.138Z,36.98
2023-05-20T13:05:54.800Z,36.32
2023-05-20T13:08:21.730Z,35.81
2023-05-20T13:10:48.482Z,36.18
2023-05-20T13:13:21.238Z,35.83
2023-05-20T13:15:51.641Z,36.52
2023-05-20T13:18:19.355Z,37.04
2023-05-20T13:20:46.413Z,36.93
2023-05-20T13:23:13.003Z,37.49
2023-05-20T13:25:39.545Z,36.87
2023-05-20T13:28:06.541Z,35.85
2023-05-20T13:30:33.512Z,36.67
2023-05-20T13:33:00.525Z,35.32
2023-05-20T13:35:27.206Z,36.03
2023-05-20T13:37:54.072Z,36.11
2023-05-20T13:40:20.868Z,35.93
2023-05-20T13:42:47.402Z,35.49
2023-05-20T13:45:13.948Z,34.43
2023-05-20T13:47:40.724Z,31.83
2023-05-20T13:50:08.175Z,34.95
2023-05-20T13:52:34.855Z,33.02
2023-05-20T13:55:01.561Z,34.96
2023-05-20T13:57:28.074Z,35.68
2023-05-20T13:59:54.585Z,34.01
2023-05-20T14:02:21.306Z,34.72
2023-05-20T14:04:48.105Z,33.86
2023-05-20T14:07:16.181Z,34.44
2023-05-20T14:09:45.097Z,34.65
2023-05-20T14:12:16.155Z,34.88
2023-05-20T14:14:42.871Z,34.72
2023-05-20T14:17:09.921Z,34.88
2023-05-20T14:19:36.584Z,34.20
2023-05-20T14:22:03.442Z,34.82
2023-05-20T14:24:30.102Z,34.39
2023-05-20T14:26:56.614Z,30.14
2023-05-20T14:29:23.298Z,34.20
2023-05-20T14:31:49.911Z,34.30
2023-05-20T14:34:16.852Z,34.80
2023-05-20T14:36:43.926Z,34.29
2023-05-20T14:39:10.472Z,32.98
2023-05-20T14:41:37.182Z,33.28
2023-05-20T14:44:03.868Z,33.74
2023-05-20T14:46:30.864Z,33.80
2023-05-20T14:48:57.454Z,32.82
2023-05-20T14:51:27.144Z,31.26
2023-05-20T14:53:53.762Z,33.62
2023-05-20T14:56:20.742Z,33.63
2023-05-20T14:58:47.383Z,33.36
2023-05-20T15:01:13.992Z,33.00
2023-05-20T15:03:41.159Z,33.14
2023-05-20T15:06:07.843Z,32.69
2023-05-20T15:08:34.384Z,32.13
2023-05-20T15:11:01.194Z,32.24
2023-05-20T15:13:27.797Z,32.36
2023-05-20T15:15:54.408Z,31.67
2023-05-20T15:18:21.169Z,31.97
2023-05-20T15:20:48.115Z,30.62
2023-05-20T15:23:14.658Z,30.49
2023-05-20T15:25:41.395Z,31.68
2023-05-20T15:28:08.013Z,30.54
2023-05-20T15:30:34.829Z,31.56
2023-05-20T15:33:01.877Z,32.42
2023-05-20T15:35:28.655Z,32.47
2023-05-20T15:37:55.614Z,32.82
2023-05-20T15:40:24.656Z,31.58
2023-05-20T15:42:51.514Z,30.41
2023-05-20T15:45:18.435Z,31.64
2023-05-20T15:47:45.061Z,32.42
2023-05-20T15:52:56.852Z,32.52
2023-05-20T15:55:26.982Z,32.99
2023-05-20T15:57:54.012Z,32.93
2023-05-20T16:00:24.483Z,32.97
2023-05-20T16:02:51.752Z,29.46
2023-05-20T16:05:18.426Z,31.45
2023-05-20T16:07:46.825Z,31.42
2023-05-20T16:10:13.491Z,31.73
2023-05-20T16:12:40.240Z,32.20
2023-05-20T16:15:10.764Z,32.03
2023-05-20T16:17:38.085Z,32.36
2023-05-20T16:20:08.351Z,32.19
2023-05-20T16:22:36.108Z,32.40
2023-05-20T16:25:03.878Z,32.10
2023-05-20T16:27:33.032Z,32.69
2023-05-20T16:29:59.787Z,33.18
2023-05-20T16:32:27.073Z,32.48
2023-05-20T16:34:54.760Z,32.78
2023-05-20T16:37:27.028Z,33.42
2023-05-20T16:39:53.646Z,32.53
2023-05-20T16:42:21.305Z,33.21
2023-05-20T16:44:50.718Z,32.71
2023-05-20T16:47:17.619Z,32.81
2023-05-20T16:49:44.241Z,32.39
2023-05-20T16:52:11.032Z,32.60
2023-05-20T16:54:37.667Z,32.61
2023-05-20T16:57:04.766Z,32.93
2023-05-20T16:59:34.953Z,32.34
2023-05-20T17:02:02.146Z,32.56
2023-05-20T17:04:28.729Z,32.91
2023-05-20T17:06:56.807Z,33.28
2023-05-20T17:09:23.532Z,33.34
2023-05-20T17:11:50.991Z,32.61
2023-05-20T17:14:17.865Z,32.06
2023-05-20T17:16:46.824Z,32.14
2023-05-20T17:19:13.551Z,32.48
2023-05-20T17:21:40.106Z,32.37
2023-05-20T17:24:07.094Z,32.93
2023-05-20T17:26:33.976Z,32.83
2023-05-20T17:29:00.740Z,33.01
2023-05-20T17:31:27.314Z,33.18
2023-05-20T17:33:53.949Z,32.56
2023-05-20T17:36:22.904Z,33.25
2023-05-20T17:38:50.515Z,32.82
2023-05-20T17:41:21.897Z,33.32
2023-05-20T17:43:48.598Z,33.44
2023-05-20T17:46:19.013Z,33.87
2023-05-20T17:48:45.720Z,34.14
2023-05-20T17:51:12.362Z,34.29
2023-05-20T17:53:38.880Z,34.51
2023-05-20T17:56:05.894Z,34.32
2023-05-20T17:58:33.658Z,34.49
2023-05-20T18:01:00.435Z,34.59
2023-05-20T18:03:27.832Z,35.43
2023-05-20T18:05:56.151Z,35.24
2023-05-20T18:08:25.183Z,35.84
2023-05-20T18:10:52.574Z,35.66
2023-05-20T18:13:19.156Z,36.13
2023-05-20T18:15:45.731Z,35.47
2023-05-20T18:18:12.380Z,36.26
2023-05-20T18:20:38.897Z,37.07
2023-05-20T18:23:05.462Z,36.78
2023-05-20T18:25:32.421Z,36.74
2023-05-20T18:27:58.967Z,37.35
2023-05-20T18:30:25.518Z,36.38
2023-05-20T18:32:53.269Z,36.40
2023-05-20T18:35:20.095Z,37.02
2023-05-20T18:37:46.860Z,36.69
2023-05-20T18:40:13.904Z,36.88
2023-05-20T18:42:40.505Z,37.39
2023-05-20T18:45:07.665Z,37.07
2023-05-20T18:47:34.394Z,37.80
2023-05-20T18:50:01.174Z,37.07
2023-05-20T18:52:27.754Z,37.39
2023-05-20T18:54:54.335Z,38.13
2023-05-20T18:57:22.483Z,38.35
2023-05-20T18:59:49.121Z,38.65
2023-05-20T19:02:17.287Z,38.36
2023-05-20T19:04:44.072Z,38.82
2023-05-20T19:07:11.737Z,38.59
2023-05-20T19:09:38.335Z,38.53
2023-05-20T19:12:05.907Z,39.43
2023-05-20T19:14:32.451Z,38.98
2023-05-20T19:17:00.949Z,38.86
2023-05-20T19:19:27.824Z,38.95
2023-05-20T19:21:54.634Z,39.10
2023-05-20T19:24:21.414Z,39.54
2023-05-20T19:26:48.096Z,39.60
2023-05-20T19:29:15.357Z,39.55
2023-05-20T19:31:43.222Z,39.49
2023-05-20T19:34:10.224Z,39.34
2023-05-20T19:36:38.377Z,39.48
2023-05-20T19:39:05.376Z,39.14
2023-05-20T19:41:32.126Z,39.16
2023-05-20T19:43:58.674Z,38.67
2023-05-20T19:46:25.306Z,39.54
2023-05-20T19:48:51.996Z,39.55
2023-05-20T19:51:18.586Z,39.46
2023-05-20T19:53:45.202Z,38.82
2023-05-20T19:56:12.904Z,39.25
2023-05-20T19:58:39.506Z,39.09
2023-05-20T20:01:06.676Z,39.42
2023-05-20T20:03:34.080Z,39.62
2023-05-20T20:06:00.796Z,39.77
2023-05-20T20:08:27.373Z,39.26
2023-05-20T20:10:53.900Z,39.71
2023-05-20T20:13:20.496Z,39.23
2023-05-20T20:15:47.085Z,39.29
2023-05-20T20:18:14.200Z,39.43
2023-05-20T20:20:40.727Z,39.30
2023-05-20T20:23:08.426Z,39.33
2023-05-20T20:25:38.808Z,39.33
2023-05-20T20:28:09.149Z,39.38
2023-05-20T20:30:36.399Z,39.55
2023-05-20T20:33:06.426Z,39.23
2023-05-20T20:35:34.148Z,39.81
2023-05-20T20:38:01.467Z,40.14
2023-05-20T20:40:28.418Z,40.17
2023-05-20T20:42:58.375Z,39.92
2023-05-20T20:45:24.954Z,39.84
2023-05-20T20:47:58.010Z,40.20
2023-05-20T20:50:24.845Z,40.05
2023-05-20T20:52:51.361Z,40.34
2023-05-20T20:55:18.052Z,40.34
2023-05-20T20:57:44.851Z,40.42
2023-05-20T21:00:23.204Z,40.12
2023-05-20T21:02:50.222Z,40.50
2023-05-20T21:05:17.491Z,40.23
2023-05-20T21:07:46.505Z,40.44
2023-05-20T21:10:13.260Z,39.90
2023-05-20T21:12:39.865Z,40.44
2023-05-20T21:15:07.154Z,40.51
2023-05-20T21:17:33.727Z,40.15
2023-05-20T21:20:00.414Z,40.09
2023-05-20T21:22:26.963Z,40.58
2023-05-20T21:24:53.506Z,40.12
2023-05-20T21:27:20.025Z,40.30
2023-05-20T21:29:46.631Z,40.66
2023-05-20T21:32:13.148Z,40.45
2023-05-20T21:34:39.673Z,40.99
2023-05-20T21:37:06.323Z,40.92
2023-05-20T21:39:32.829Z,41.47
2023-05-20T21:41:59.372Z,40.57
2023-05-20T21:44:25.899Z,41.55
2023-05-20T21:46:52.540Z,41.39
2023-05-20T21:49:19.110Z,41.41
2023-05-20T21:51:45.614Z,40.93
2023-05-20T21:54:12.203Z,41.46
2023-05-20T21:56:39.132Z,42.24
2023-05-20T21:59:05.694Z,41.83
2023-05-20T22:01:32.599Z,41.64
2023-05-20T22:03:59.442Z,41.59
2023-05-20T22:06:26.431Z,41.58
2023-05-20T22:08:54.996Z,42.56
2023-05-20T22:11:21.618Z,41.65
2023-05-20T22:13:48.195Z,41.87
2023-05-20T22:16:14.811Z,41.87
2023-05-20T22:18:42.644Z,43.09
2023-05-20T22:21:09.419Z,42.04
2023-05-20T22:23:36.110Z,43.02
2023-05-20T22:26:02.712Z,42.71
2023-05-20T22:28:30.414Z,42.79
2023-05-20T22:30:56.959Z,43.21
2023-05-20T22:33:24.443Z,42.82
2023-05-20T22:35:51.489Z,43.23
2023-05-20T22:38:18.043Z,43.90
2023-05-20T22:40:44.570Z,44.55
2023-05-20T22:43:13.067Z,43.81
2023-05-20T22:45:40.140Z,43.18
2023-05-20T22:48:06.920Z,43.49
2023-05-20T22:50:35.302Z,44.06
2023-05-20T22:53:04.664Z,43.68
2023-05-20T22:55:31.206Z,43.79
2023-05-20T22:57:57.942Z,44.62
2023-05-20T23:00:24.806Z,44.68
2023-05-20T23:02:52.323Z,45.04
2023-05-20T23:05:19.222Z,44.75
2023-05-20T23:07:45.876Z,45.17
2023-05-20T23:10:12.405Z,45.18
2023-05-20T23:12:39.046Z,44.51
2023-05-20T23:15:06.136Z,44.19
2023-05-20T23:17:32.683Z,45.64
2023-05-20T23:19:59.225Z,45.86
2023-05-20T23:22:25.972Z,46.36
2023-05-20T23:24:52.514Z,45.70
2023-05-20T23:27:19.036Z,46.52
2023-05-20T23:29:45.971Z,46.04
2023-05-20T23:32:12.481Z,46.60
2023-05-20T23:34:38.957Z,46.11
2023-05-20T23:37:05.452Z,46.60
2023-05-20T23:39:32.062Z,46.44
2023-05-20T23:41:58.579Z,47.04
2023-05-20T23:44:25.110Z,46.72
2023-05-20T23:46:51.675Z,46.94
2023-05-20T23:49:18.671Z,46.70
2023-05-20T23:51:45.182Z,47.20
2023-05-20T23:54:16.181Z,46.78
2023-05-20T23:56:42.770Z,47.30
2023-05-20T23:59:09.361Z,47.77
